Terminal Aerodrome Forecast
Issued by NWS

Home | Current Version | Previous Version | Text Only | Print | Product List | Glossary On
Versions: 1 2 3 4 5 6 7 8 9 10 11 12 13 14 15 16 17 18 19 20
000
FTUS43 KABR 312324
TAFPIR
TAF
KPIR 312324Z 0100/0124 VRB05KT P6SM SCT150
     FM011600 14011KT P6SM SKC=

USA.gov is the U.S. government's official web portal to all federal, state and local government web resources and services.